createdAt,value
2023-01-15T00:02:23.439Z,99801.10
2023-01-15T00:04:51.921Z,99804.10
2023-01-15T00:07:19.354Z,99803.20
2023-01-15T00:09:46.809Z,99802.03
2023-01-15T00:12:14.003Z,99799.60
2023-01-15T00:14:41.722Z,99798.83
2023-01-15T00:17:08.877Z,99797.39
2023-01-15T00:19:36.464Z,99798.70
2023-01-15T00:22:03.912Z,99797.14
2023-01-15T00:24:50.384Z,99798.91
2023-01-15T00:27:37.805Z,99800.60
2023-01-15T00:30:05.371Z,99800.73
2023-01-15T00:32:32.430Z,99798.00
2023-01-15T00:34:59.760Z,99799.42
2023-01-15T00:37:27.544Z,99800.00
2023-01-15T00:39:54.736Z,99804.35
2023-01-15T00:42:22.040Z,99802.15
2023-01-15T00:44:49.400Z,99798.13
2023-01-15T00:47:17.054Z,99793.66
2023-01-15T00:49:45.228Z,99789.66
2023-01-15T00:52:14.216Z,99790.83
2023-01-15T00:54:41.201Z,99787.45
2023-01-15T00:57:09.298Z,99782.85
2023-01-15T00:59:36.274Z,99785.76
2023-01-15T01:02:03.900Z,99786.52
2023-01-15T01:04:30.989Z,99791.79
2023-01-15T01:06:58.138Z,99791.63
2023-01-15T01:09:25.183Z,99793.89
2023-01-15T01:11:52.437Z,99795.94
2023-01-15T01:14:19.664Z,99800.13
2023-01-15T01:16:47.123Z,99799.86
2023-01-15T01:19:20.114Z,99794.87
2023-01-15T01:21:47.956Z,99791.92
2023-01-15T01:24:18.154Z,99792.12
2023-01-15T01:26:46.104Z,99789.91
2023-01-15T01:29:14.483Z,99785.40
2023-01-15T01:31:41.988Z,99784.77
2023-01-15T01:34:10.017Z,99789.52
2023-01-15T01:36:38.558Z,99790.90
2023-01-15T01:39:06.694Z,99785.64
2023-01-15T01:41:34.432Z,99789.04
2023-01-15T01:44:05.791Z,99782.53
2023-01-15T01:46:35.159Z,99778.58
2023-01-15T01:49:10.295Z,99778.49
2023-01-15T01:51:40.284Z,99778.05
2023-01-15T01:54:07.461Z,99781.73
2023-01-15T01:56:35.124Z,99777.48
2023-01-15T01:59:02.169Z,99774.83
2023-01-15T02:01:29.329Z,99774.16
2023-01-15T02:03:57.713Z,99773.36
2023-01-15T02:06:24.742Z,99777.36
2023-01-15T02:08:52.386Z,99775.65
2023-01-15T02:11:21.742Z,99776.10
2023-01-15T02:14:12.908Z,99773.74
2023-01-15T02:16:56.352Z,99772.12
2023-01-15T02:20:05.996Z,99771.01
2023-01-15T02:22:46.041Z,99773.16
2023-01-15T02:25:18.930Z,99765.97
2023-01-15T02:27:52.174Z,99769.89
2023-01-15T02:30:26.030Z,99773.17
2023-01-15T02:32:59.525Z,99768.39
2023-01-15T02:35:34.867Z,99770.70
2023-01-15T02:38:05.311Z,99771.87
2023-01-15T02:40:32.956Z,99771.10
2023-01-15T02:43:00.766Z,99768.79
2023-01-15T02:45:30.967Z,99767.97
2023-01-15T02:48:06.023Z,99766.98
2023-01-15T02:50:37.322Z,99764.67
2023-01-15T02:53:08.269Z,99763.15
2023-01-15T02:55:39.638Z,99763.21
2023-01-15T02:58:09.668Z,99765.73
2023-01-15T03:00:39.912Z,99767.95
2023-01-15T03:03:17.119Z,99770.27
2023-01-15T03:06:03.227Z,99765.57
2023-01-15T03:08:30.263Z,99767.40
2023-01-15T03:11:14.366Z,99764.74
2023-01-15T03:14:06.371Z,99760.96
2023-01-15T03:16:35.327Z,99758.70
2023-01-15T03:19:34.960Z,99761.31
2023-01-15T03:22:08.350Z,99760.79
2023-01-15T03:24:49.347Z,99762.23
2023-01-15T03:27:17.395Z,99766.72
2023-01-15T03:30:05.910Z,99766.08
2023-01-15T03:32:32.995Z,99772.52
2023-01-15T03:35:00.655Z,99767.21
2023-01-15T03:37:28.623Z,99768.14
2023-01-15T03:39:56.901Z,99766.02
2023-01-15T03:42:40.843Z,99767.63
2023-01-15T03:45:13.731Z,99769.33
2023-01-15T03:47:59.151Z,99766.35
2023-01-15T03:50:33.631Z,99763.32
2023-01-15T03:53:32.397Z,99767.14
2023-01-15T03:56:15.437Z,99772.83
2023-01-15T03:58:48.538Z,99775.38
2023-01-15T04:01:20.305Z,99782.20
2023-01-15T04:03:49.378Z,99783.66
2023-01-15T09:02:21.721Z,99664.77
2023-01-15T09:04:48.844Z,99668.46
2023-01-15T09:07:16.985Z,99669.80
2023-01-15T09:09:45.225Z,99661.43
2023-01-15T09:12:12.766Z,99662.27
2023-01-15T09:14:55.368Z,99652.66
2023-01-15T09:17:26.689Z,99656.44
2023-01-15T09:19:53.669Z,99656.27
2023-01-15T09:22:20.567Z,99655.36
2023-01-15T09:24:47.760Z,99657.39
2023-01-15T09:27:15.136Z,99656.81
2023-01-15T09:29:42.674Z,99657.13
2023-01-15T09:32:11.056Z,99656.68
2023-01-15T09:34:38.427Z,99655.21
2023-01-15T09:37:05.969Z,99653.60
2023-01-15T09:39:33.426Z,99654.09
2023-01-15T09:42:26.178Z,99651.39
2023-01-15T09:45:14.259Z,99651.88
2023-01-15T09:48:03.419Z,99653.27
2023-01-15T09:50:46.296Z,99655.58
2023-01-15T09:53:21.537Z,99660.25
2023-01-15T09:55:50.905Z,99660.98
2023-01-15T09:58:21.468Z,99659.98
2023-01-15T10:00:50.371Z,99667.10
2023-01-15T10:03:36.189Z,99672.15
2023-01-15T10:06:09.428Z,99669.30
2023-01-15T10:08:42.937Z,99668.93
2023-01-15T10:11:16.350Z,99668.77
2023-01-15T10:13:56.563Z,99677.13
2023-01-15T10:16:26.300Z,99674.38
2023-01-15T10:18:53.699Z,99669.41
2023-01-15T10:21:42.503Z,99667.21
2023-01-15T10:24:18.666Z,99669.80
2023-01-15T10:26:59.395Z,99666.11
2023-01-15T10:29:34.275Z,99671.09
2023-01-15T10:32:29.987Z,99673.94
2023-01-15T10:35:19.919Z,99681.45
2023-01-15T10:38:22.181Z,99679.21
2023-01-15T10:40:49.668Z,99673.48
2023-01-15T10:43:25.618Z,99679.73
2023-01-15T10:46:14.246Z,99678.39
2023-01-15T10:48:46.301Z,99675.20
2023-01-15T10:51:19.138Z,99673.91
2023-01-15T10:54:05.876Z,99672.40
2023-01-15T10:56:36.204Z,99670.61
2023-01-15T10:59:19.967Z,99669.05
2023-01-15T11:01:49.168Z,99672.01
2023-01-15T11:04:16.995Z,99667.61
2023-01-15T11:06:45.882Z,99666.71
2023-01-15T11:09:22.569Z,99664.72
2023-01-15T11:12:00.595Z,99665.29
2023-01-15T11:14:57.089Z,99660.85
2023-01-15T11:17:44.273Z,99657.77
2023-01-15T11:20:43.054Z,99655.37
2023-01-15T11:23:15.438Z,99654.73
2023-01-15T11:25:57.517Z,99651.40
2023-01-15T11:28:36.659Z,99645.59
2023-01-15T11:31:04.486Z,99646.47
2023-01-15T11:33:32.435Z,99643.48
2023-01-15T11:36:01.796Z,99643.03
2023-01-15T11:38:31.179Z,99641.34
2023-01-15T11:41:02.871Z,99642.90
2023-01-15T11:43:49.628Z,99639.23
2023-01-15T11:46:49.422Z,99639.30
2023-01-15T11:49:39.817Z,99633.90
2023-01-15T11:52:10.562Z,99638.16
2023-01-15T11:54:42.717Z,99642.02
2023-01-15T11:57:11.128Z,99636.18
2023-01-15T11:59:38.696Z,99636.36
2023-01-15T12:02:32.983Z,99635.73
2023-01-15T12:05:01.192Z,99630.27
2023-01-15T12:07:28.863Z,99633.14
2023-01-15T12:10:03.003Z,99630.27
2023-01-15T12:13:16.153Z,99631.36
2023-01-15T12:15:55.599Z,99634.30
2023-01-15T12:19:01.236Z,99634.81
2023-01-15T12:21:33.956Z,99642.46
2023-01-15T12:24:14.573Z,99641.02
2023-01-15T12:26:51.425Z,99642.88
2023-01-15T12:29:18.803Z,99640.83
2023-01-15T12:31:54.021Z,99639.98
2023-01-15T12:35:29.648Z,99631.27
2023-01-15T12:38:10.599Z,99633.13
2023-01-15T12:40:52.344Z,99635.77
2023-01-15T12:43:43.443Z,99634.84
2023-01-15T12:46:17.008Z,99633.69
2023-01-15T12:48:48.555Z,99636.82
2023-01-15T12:51:23.720Z,99634.41
2023-01-15T12:53:58.510Z,99633.12
2023-01-15T12:56:29.768Z,99633.45
2023-01-15T12:59:42.866Z,99637.58
2023-01-15T18:27:48.458Z,99502.62
2023-01-15T18:30:16.835Z,99509.38
2023-01-15T18:32:45.819Z,99512.23
2023-01-15T18:35:14.459Z,99512.98
2023-01-15T18:37:43.470Z,99517.40
2023-01-15T18:40:12.235Z,99514.10
2023-01-15T18:42:59.472Z,99510.18
2023-01-15T18:45:48.569Z,99509.42
2023-01-15T18:48:16.542Z,99510.29
2023-01-15T18:50:44.624Z,99516.11
2023-01-15T18:53:15.854Z,99512.29
2023-01-15T18:55:43.786Z,99513.59
2023-01-15T18:58:11.612Z,99509.25
2023-01-15T19:00:41.145Z,99506.63
2023-01-15T19:03:14.587Z,99504.08
2023-01-15T19:05:43.584Z,99510.41
2023-01-15T19:08:12.898Z,99515.85
2023-01-15T19:10:42.940Z,99512.38
2023-01-15T19:13:13.169Z,99517.10
2023-01-15T19:16:00.865Z,99516.77
2023-01-15T19:18:52.287Z,99519.19
2023-01-15T19:21:22.821Z,99521.98
2023-01-15T19:23:51.281Z,99522.42
2023-01-15T19:26:19.705Z,99529.00
2023-01-15T19:28:47.808Z,99532.52
2023-01-15T19:31:36.658Z,99527.98
2023-01-15T19:34:32.165Z,99529.22
2023-01-15T19:36:57.105Z,99530.38
2023-01-15T19:39:26.365Z,99528.19
2023-01-15T19:42:16.373Z,99526.67
2023-01-15T19:45:05.417Z,99527.57
2023-01-15T19:48:16.997Z,99525.46
2023-01-15T19:50:45.369Z,99522.08
2023-01-15T19:53:13.393Z,99527.61
2023-01-15T19:55:46.024Z,99525.36
2023-01-15T19:58:14.420Z,99522.52
2023-01-15T20:00:45.010Z,99526.71
2023-01-15T20:03:13.198Z,99527.02
2023-01-15T20:05:42.923Z,99531.96
2023-01-15T20:08:17.647Z,99534.92
2023-01-15T20:10:49.933Z,99535.04
2023-01-15T20:13:40.984Z,99534.55
2023-01-15T20:16:12.823Z,99535.14
2023-01-15T20:18:40.641Z,99532.73
2023-01-15T20:21:07.957Z,99534.52
2023-01-15T20:23:36.390Z,99537.80
2023-01-15T20:26:05.578Z,99540.27
2023-01-15T20:28:36.527Z,99534.32
2023-01-15T20:31:13.885Z,99536.39
2023-01-15T20:33:47.148Z,99533.28
2023-01-15T20:36:15.547Z,99535.88
2023-01-15T20:38:42.963Z,99532.79
2023-01-15T20:41:29.944Z,99530.80
2023-01-15T20:44:24.661Z,99530.88
2023-01-15T20:46:52.770Z,99528.17
2023-01-15T20:49:28.733Z,99533.02
2023-01-15T20:51:57.902Z,99530.09
2023-01-15T20:54:25.866Z,99536.09
2023-01-15T20:56:54.803Z,99536.13
2023-01-15T20:59:22.372Z,99538.60
2023-01-15T21:01:49.980Z,99543.45
2023-01-15T21:04:18.552Z,99549.05
2023-01-15T21:06:47.510Z,99553.30
2023-01-15T21:09:15.198Z,99552.73
2023-01-15T21:11:43.725Z,99554.77
2023-01-15T21:14:12.194Z,99559.46
2023-01-15T21:16:40.074Z,99559.10
2023-01-15T21:19:12.116Z,99565.09
2023-01-15T21:21:40.159Z,99571.70
2023-01-15T21:24:07.946Z,99562.52
2023-01-15T21:26:36.110Z,99557.09
2023-01-15T21:29:03.683Z,99554.70
2023-01-15T21:31:30.955Z,99556.90
2023-01-15T21:33:58.517Z,99554.05
2023-01-15T21:36:26.023Z,99549.39
2023-01-15T21:38:58.463Z,99544.21
2023-01-15T21:41:44.534Z,99541.39
2023-01-15T21:44:37.770Z,99538.27
2023-01-15T21:47:06.577Z,99539.73
2023-01-15T21:49:34.205Z,99535.06
2023-01-15T21:52:04.410Z,99527.86
2023-01-15T21:54:32.227Z,99522.34
2023-01-15T21:56:59.835Z,99518.42
2023-01-15T21:59:28.718Z,99521.11
2023-01-15T22:01:57.220Z,99518.09
2023-01-15T22:04:25.664Z,99525.02
2023-01-15T22:06:53.183Z,99527.60
2023-01-15T22:09:21.009Z,99521.59
2023-01-15T22:11:48.694Z,99519.90
2023-01-15T22:14:28.900Z,99519.64
2023-01-15T22:16:57.702Z,99514.91
2023-01-15T22:19:27.012Z,99509.41
2023-01-15T22:21:56.739Z,99507.11
2023-01-15T22:24:32.268Z,99506.73
2023-01-15T22:27:00.298Z,99502.84
2023-01-15T22:29:32.623Z,99501.58
2023-01-15T22:32:00.322Z,99500.04
2023-01-15T22:34:28.284Z,99498.80
2023-01-15T22:36:55.910Z,99498.44
2023-01-15T22:39:23.976Z,99490.92
2023-01-15T22:42:10.165Z,99492.67
2023-01-15T22:44:37.870Z,99488.51
2023-01-15T22:47:05.319Z,99486.59
2023-01-15T22:49:32.740Z,99484.23
2023-01-15T22:52:00.188Z,99476.18
2023-01-15T22:54:27.533Z,99478.79
2023-01-15T22:57:16.880Z,99479.53
2023-01-15T22:59:45.280Z,99482.08
2023-01-15T23:02:12.975Z,99471.93
2023-01-15T23:04:40.838Z,99472.88
2023-01-15T23:07:09.182Z,99466.67
2023-01-15T23:09:36.942Z,99470.85
2023-01-15T23:12:04.563Z,99472.78
2023-01-15T23:14:32.219Z,99474.06
2023-01-15T23:17:00.448Z,99470.35
2023-01-15T23:19:28.023Z,99469.56
2023-01-15T23:22:00.333Z,99468.64
2023-01-15T23:24:28.283Z,99468.54
2023-01-15T23:26:55.579Z,99461.08
2023-01-15T23:29:34.810Z,99459.69
2023-01-15T23:32:02.695Z,99460.57
2023-01-15T23:34:30.432Z,99459.58
2023-01-15T23:36:58.022Z,99456.86
2023-01-15T23:39:25.571Z,99455.23
2023-01-15T23:42:11.578Z,99453.88
2023-01-15T23:44:57.545Z,99457.39
2023-01-15T23:47:24.906Z,99457.89
2023-01-15T23:49:53.098Z,99461.79
2023-01-15T23:52:20.422Z,99459.37
2023-01-15T23:54:47.788Z,99458.45
2023-01-15T23:57:15.182Z,99452.91
2023-01-15T23:59:44.552Z,99452.56
